Norway House Airport

CYNE | YNE

Norway House , Manitoba , Canada

Saturday, September 21st, 2019 | 06:34

Weather

CYNE 211100Z AUTO 32006KT 300V010 3/8SM FG VV002 13/13 A2962 RMK SLP037 DENSITY ALT 1000FT

Charts

No Charts Available

Gates

No Gates Available

Runways

1 Available

Events

No events for this airport


New event